sensor_id;sensor_type;location;lat;lon;timestamp;pressure;altitude;pressure_sealevel;temperature;humidity
71306;BME280;59097;46.858;18.632;2023-04-01T00:00:53;99121.81;;;9.21;100.00
71306;BME280;59097;46.858;18.632;2023-04-01T00:03:23;99103.94;;;9.10;100.00
71306;BME280;59097;46.858;18.632;2023-04-01T00:05:52;99116.31;;;9.22;100.00
71306;BME280;59097;46.858;18.632;2023-04-01T00:08:21;99113.03;;;9.27;100.00
71306;BME280;59097;46.858;18.632;2023-04-01T00:10:50;99103.09;;;9.16;100.00
71306;BME280;59097;46.858;18.632;2023-04-01T00:13:18;99117.53;;;9.20;100.00
71306;BME280;59097;46.858;18.632;2023-04-01T00:15:46;99099.47;;;9.10;100.00
71306;BME280;59097;46.858;18.632;2023-04-01T00:18:15;99115.50;;;9.22;100.00
71306;BME280;59097;46.858;18.632;2023-04-01T00:20:45;99107.91;;;9.32;100.00
71306;BME280;59097;46.858;18.632;2023-04-01T00:23:15;99113.28;;;9.19;100.00
71306;BME280;59097;46.858;18.632;2023-04-01T00:25:44;99104.75;;;9.10;100.00
71306;BME280;59097;46.858;18.632;2023-04-01T00:28:16;99119.41;;;9.13;100.00
71306;BME280;59097;46.858;18.632;2023-04-01T00:30:45;99103.94;;;9.16;100.00
71306;BME280;59097;46.858;18.632;2023-04-01T00:33:13;99108.56;;;9.21;100.00
71306;BME280;59097;46.858;18.632;2023-04-01T00:35:41;99092.34;;;9.11;100.00
71306;BME280;59097;46.858;18.632;2023-04-01T00:38:10;99115.16;;;9.12;100.00
71306;BME280;59097;46.858;18.632;2023-04-01T00:40:41;99094.41;;;9.02;100.00
71306;BME280;59097;46.858;18.632;2023-04-01T00:43:16;99116.81;;;9.00;100.00
71306;BME280;59097;46.858;18.632;2023-04-01T00:45:47;99112.91;;;9.09;100.00
71306;BME280;59097;46.858;18.632;2023-04-01T00:48:19;99108.03;;;9.06;100.00
71306;BME280;59097;46.858;18.632;2023-04-01T00:50:55;99092.84;;;8.95;100.00
71306;BME280;59097;46.858;18.632;2023-04-01T00:53:26;99100.28;;;9.11;100.00
71306;BME280;59097;46.858;18.632;2023-04-01T00:56:01;99103.75;;;9.05;100.00
71306;BME280;59097;46.858;18.632;2023-04-01T00:58:33;99099.88;;;9.14;100.00
71306;BME280;59097;46.858;18.632;2023-04-01T01:01:02;99094.16;;;9.17;100.00
71306;BME280;59097;46.858;18.632;2023-04-01T01:03:31;99061.69;;;9.03;100.00
71306;BME280;59097;46.858;18.632;2023-04-01T01:06:22;99084.78;;;9.21;100.00
71306;BME280;59097;46.858;18.632;2023-04-01T01:11:29;99100.72;;;9.08;100.00
71306;BME280;59097;46.858;18.632;2023-04-01T01:14:22;99075.19;;;8.89;100.00
71306;BME280;59097;46.858;18.632;2023-04-01T01:16:58;99087.72;;;9.06;100.00
71306;BME280;59097;46.858;18.632;2023-04-01T01:22:16;99099.06;;;9.13;100.00
71306;BME280;59097;46.858;18.632;2023-04-01T01:27:39;99096.06;;;9.03;100.00
71306;BME280;59097;46.858;18.632;2023-04-01T01:38:08;99086.72;;;9.01;100.00
71306;BME280;59097;46.858;18.632;2023-04-01T01:40:39;99089.75;;;9.04;100.00
71306;BME280;59097;46.858;18.632;2023-04-01T01:43:12;99086.87;;;9.06;100.00
71306;BME280;59097;46.858;18.632;2023-04-01T01:45:48;99101.47;;;9.15;100.00
71306;BME280;59097;46.858;18.632;2023-04-01T01:48:19;99101.47;;;9.15;100.00
71306;BME280;59097;46.858;18.632;2023-04-01T01:50:48;99101.75;;;9.07;100.00
71306;BME280;59097;46.858;18.632;2023-04-01T01:53:17;99097.06;;;9.09;100.00
71306;BME280;59097;46.858;18.632;2023-04-01T01:55:46;99086.66;;;9.14;100.00
71306;BME280;59097;46.858;18.632;2023-04-01T01:58:29;99068.12;;;9.14;100.00
71306;BME280;59097;46.858;18.632;2023-04-01T02:01:01;99053.63;;;8.92;100.00
71306;BME280;59097;46.858;18.632;2023-04-01T02:03:34;99081.53;;;9.19;100.00
71306;BME280;59097;46.858;18.632;2023-04-01T02:06:05;99086.22;;;9.17;100.00
71306;BME280;59097;46.858;18.632;2023-04-01T02:08:52;99091.59;;;9.04;100.00
71306;BME280;59097;46.858;18.632;2023-04-01T02:11:29;99079.19;;;8.98;100.00
71306;BME280;59097;46.858;18.632;2023-04-01T02:17:16;99062.19;;;8.80;100.00
71306;BME280;59097;46.858;18.632;2023-04-01T02:19:54;99086.28;;;9.04;100.00
71306;BME280;59097;46.858;18.632;2023-04-01T02:22:28;99045.16;;;8.70;100.00
71306;BME280;59097;46.858;18.632;2023-04-01T02:25:02;99082.03;;;9.03;100.00
71306;BME280;59097;46.858;18.632;2023-04-01T02:27:32;99068.66;;;8.91;100.00
71306;BME280;59097;46.858;18.632;2023-04-01T02:30:02;99088.31;;;9.08;100.00
71306;BME280;59097;46.858;18.632;2023-04-01T02:32:31;99038.47;;;8.67;100.00
71306;BME280;59097;46.858;18.632;2023-04-01T02:35:01;99071.09;;;8.93;100.00
71306;BME280;59097;46.858;18.632;2023-04-01T02:37:33;99075.12;;;8.95;100.00
71306;BME280;59097;46.858;18.632;2023-04-01T02:40:06;99053.22;;;8.81;100.00
71306;BME280;59097;46.858;18.632;2023-04-01T02:42:35;99062.97;;;8.88;100.00
71306;BME280;59097;46.858;18.632;2023-04-01T02:45:05;99064.44;;;8.83;100.00
71306;BME280;59097;46.858;18.632;2023-04-01T02:47:33;99063.37;;;8.91;100.00
71306;BME280;59097;46.858;18.632;2023-04-01T02:50:01;99065.03;;;8.85;100.00
71306;BME280;59097;46.858;18.632;2023-04-01T02:52:30;99077.41;;;8.92;100.00
71306;BME280;59097;46.858;18.632;2023-04-01T02:54:58;99064.78;;;8.94;100.00
71306;BME280;59097;46.858;18.632;2023-04-01T02:57:27;99082.03;;;9.03;100.00
71306;BME280;59097;46.858;18.632;2023-04-01T02:59:55;99057.06;;;8.92;100.00
71306;BME280;59097;46.858;18.632;2023-04-01T03:02:23;99074.69;;;9.05;100.00
71306;BME280;59097;46.858;18.632;2023-04-01T03:04:52;99075.19;;;8.82;100.00
71306;BME280;59097;46.858;18.632;2023-04-01T03:07:20;99066.28;;;8.76;100.00
71306;BME280;59097;46.858;18.632;2023-04-01T03:09:48;99082.12;;;8.76;100.00
71306;BME280;59097;46.858;18.632;2023-04-01T03:12:16;99052.34;;;8.56;100.00
71306;BME280;59097;46.858;18.632;2023-04-01T03:14:45;99087.88;;;8.67;100.00
71306;BME280;59097;46.858;18.632;2023-04-01T03:17:13;99065.81;;;8.48;100.00
71306;BME280;59097;46.858;18.632;2023-04-01T03:19:41;99063.97;;;8.36;100.00
71306;BME280;59097;46.858;18.632;2023-04-01T03:22:12;99076.53;;;8.60;100.00
71306;BME280;59097;46.858;18.632;2023-04-01T03:24:40;99034.97;;;8.29;100.00
71306;BME280;59097;46.858;18.632;2023-04-01T03:27:08;99078.75;;;8.56;100.00
71306;BME280;59097;46.858;18.632;2023-04-01T03:29:36;99074.31;;;8.50;100.00
71306;BME280;59097;46.858;18.632;2023-04-01T03:32:05;99069.44;;;8.41;100.00
71306;BME280;59097;46.858;18.632;2023-04-01T03:34:33;99072.31;;;8.39;100.00
71306;BME280;59097;46.858;18.632;2023-04-01T03:37:00;99074.16;;;8.32;100.00
71306;BME280;59097;46.858;18.632;2023-04-01T03:39:29;99077.81;;;8.38;100.00
71306;BME280;59097;46.858;18.632;2023-04-01T03:41:58;99051.03;;;8.14;100.00
71306;BME280;59097;46.858;18.632;2023-04-01T03:44:30;99078.63;;;8.32;100.00
71306;BME280;59097;46.858;18.632;2023-04-01T03:46:59;99086.97;;;8.35;100.00
71306;BME280;59097;46.858;18.632;2023-04-01T03:49:28;99083.88;;;8.38;100.00
71306;BME280;59097;46.858;18.632;2023-04-01T03:51:56;99078.63;;;8.32;100.00
71306;BME280;59097;46.858;18.632;2023-04-01T03:54:24;99082.28;;;8.31;100.00
71306;BME280;59097;46.858;18.632;2023-04-01T03:56:52;99080.66;;;8.36;100.00
71306;BME280;59097;46.858;18.632;2023-04-01T03:59:20;99080.47;;;8.38;100.00
71306;BME280;59097;46.858;18.632;2023-04-01T04:01:49;99063.41;;;8.27;100.00
71306;BME280;59097;46.858;18.632;2023-04-01T04:04:17;99067.25;;;8.38;100.00
71306;BME280;59097;46.858;18.632;2023-04-01T04:06:45;99060.16;;;8.32;100.00
71306;BME280;59097;46.858;18.632;2023-04-01T04:09:13;99074.13;;;8.39;100.00
71306;BME280;59097;46.858;18.632;2023-04-01T04:11:42;99031.13;;;8.05;100.00
71306;BME280;59097;46.858;18.632;2023-04-01T04:14:10;99034.59;;;7.93;100.00
71306;BME280;59097;46.858;18.632;2023-04-01T04:16:38;99058.72;;;8.16;100.00
71306;BME280;59097;46.858;18.632;2023-04-01T04:19:06;99075.19;;;8.31;100.00
71306;BME280;59097;46.858;18.632;2023-04-01T04:21:34;99070.06;;;8.23;100.00
71306;BME280;59097;46.858;18.632;2023-04-01T04:24:03;99053.44;;;8.16;100.00
71306;BME280;59097;46.858;18.632;2023-04-01T04:26:33;99049.59;;;8.18;100.00
71306;BME280;59097;46.858;18.632;2023-04-01T04:29:01;99068.06;;;8.32;100.00
71306;BME280;59097;46.858;18.632;2023-04-01T04:31:30;99030.50;;;8.10;100.00
71306;BME280;59097;46.858;18.632;2023-04-01T04:34:00;99039.66;;;8.14;100.00
71306;BME280;59097;46.858;18.632;2023-04-01T04:36:31;99062.19;;;8.30;100.00
71306;BME280;59097;46.858;18.632;2023-04-01T04:38:59;99061.16;;;8.24;100.00
71306;BME280;59097;46.858;18.632;2023-04-01T04:41:31;99062.38;;;8.28;100.00
71306;BME280;59097;46.858;18.632;2023-04-01T04:43:59;99047.38;;;8.09;100.00
71306;BME280;59097;46.858;18.632;2023-04-01T04:46:27;99062.19;;;8.16;100.00
71306;BME280;59097;46.858;18.632;2023-04-01T04:48:56;99060.78;;;8.14;100.00
71306;BME280;59097;46.858;18.632;2023-04-01T04:51:24;99073.16;;;8.27;100.00
71306;BME280;59097;46.858;18.632;2023-04-01T04:53:53;99073.34;;;8.32;100.00
71306;BME280;59097;46.858;18.632;2023-04-01T04:56:22;99072.53;;;8.31;100.00
71306;BME280;59097;46.858;18.632;2023-04-01T04:58:52;99082.91;;;8.33;100.00
71306;BME280;59097;46.858;18.632;2023-04-01T05:01:21;99070.91;;;8.37;100.00
71306;BME280;59097;46.858;18.632;2023-04-01T05:03:49;99075.75;;;8.46;100.00
71306;BME280;59097;46.858;18.632;2023-04-01T05:06:18;99095.66;;;8.55;100.00
71306;BME280;59097;46.858;18.632;2023-04-01T05:08:49;99099.88;;;8.63;100.00
71306;BME280;59097;46.858;18.632;2023-04-01T05:11:19;99099.84;;;8.69;100.00
71306;BME280;59097;46.858;18.632;2023-04-01T05:13:48;99093.75;;;8.69;100.00
71306;BME280;59097;46.858;18.632;2023-04-01T05:16:18;99094.56;;;8.76;100.00
71306;BME280;59097;46.858;18.632;2023-04-01T05:18:47;99099.09;;;8.56;100.00
71306;BME280;59097;46.858;18.632;2023-04-01T05:21:16;99100.72;;;8.57;100.00
71306;BME280;59097;46.858;18.632;2023-04-01T05:23:44;99104.97;;;8.64;100.00
71306;BME280;59097;46.858;18.632;2023-04-01T05:26:14;99101.75;;;8.49;100.00
71306;BME280;59097;46.858;18.632;2023-04-01T05:28:42;99104.31;;;8.75;100.00
71306;BME280;59097;46.858;18.632;2023-04-01T05:31:10;99108.03;;;8.55;100.00
71306;BME280;59097;46.858;18.632;2023-04-01T05:33:38;99085.31;;;8.47;100.00
71306;BME280;59097;46.858;18.632;2023-04-01T05:36:08;99100.63;;;8.76;100.00
71306;BME280;59097;46.858;18.632;2023-04-01T05:38:37;99105.25;;;8.94;100.00
71306;BME280;59097;46.858;18.632;2023-04-01T05:41:05;99105.00;;;9.02;100.00
71306;BME280;59097;46.858;18.632;2023-04-01T05:43:36;99062.19;;;8.80;100.00
71306;BME280;59097;46.858;18.632;2023-04-01T05:46:05;99080.84;;;8.92;100.00
71306;BME280;59097;46.858;18.632;2023-04-01T05:48:35;99085.41;;;8.78;100.00
71306;BME280;59097;46.858;18.632;2023-04-01T05:51:04;99098.94;;;8.95;100.00
71306;BME280;59097;46.858;18.632;2023-04-01T05:53:32;99088.94;;;9.04;100.00
71306;BME280;59097;46.858;18.632;2023-04-01T05:56:03;99099.81;;;9.27;100.00
71306;BME280;59097;46.858;18.632;2023-04-01T05:58:34;99101.75;;;9.07;100.00
71306;BME280;59097;46.858;18.632;2023-04-01T06:01:07;99089.22;;;9.27;100.00
71306;BME280;59097;46.858;18.632;2023-04-01T06:03:43;99109.25;;;9.47;100.00
71306;BME280;59097;46.858;18.632;2023-04-01T06:06:19;99099.59;;;9.53;100.00
71306;BME280;59097;46.858;18.632;2023-04-01T06:08:51;99100.69;;;9.45;100.00
71306;BME280;59097;46.858;18.632;2023-04-01T06:11:33;99104.47;;;9.56;100.00
71306;BME280;59097;46.858;18.632;2023-04-01T06:17:01;99102.41;;;9.65;100.00
71306;BME280;59097;46.858;18.632;2023-04-01T06:22:44;99109.22;;;10.03;100.00
71306;BME280;59097;46.858;18.632;2023-04-01T06:30:51;99108.53;;;10.33;100.00
71306;BME280;59097;46.858;18.632;2023-04-01T06:56:09;99122.72;;;10.45;100.00
71306;BME280;59097;46.858;18.632;2023-04-01T06:58:49;99127.00;;;10.64;100.00
71306;BME280;59097;46.858;18.632;2023-04-01T07:01:25;99126.25;;;10.57;100.00
71306;BME280;59097;46.858;18.632;2023-04-01T07:03:59;99128.53;;;10.53;100.00
71306;BME280;59097;46.858;18.632;2023-04-01T07:06:32;99105.12;;;10.32;100.00
71306;BME280;59097;46.858;18.632;2023-04-01T07:09:12;99125.72;;;10.66;100.00
71306;BME280;59097;46.858;18.632;2023-04-01T07:11:48;99129.25;;;10.60;100.00
71306;BME280;59097;46.858;18.632;2023-04-01T07:14:39;99130.50;;;10.58;100.00
71306;BME280;59097;46.858;18.632;2023-04-01T07:17:15;99139.47;;;10.39;100.00
71306;BME280;59097;46.858;18.632;2023-04-01T07:19:57;99132.69;;;10.43;100.00
71306;BME280;59097;46.858;18.632;2023-04-01T07:22:31;99126.16;;;10.82;100.00
71306;BME280;59097;46.858;18.632;2023-04-01T07:25:24;99130.44;;;10.83;100.00
71306;BME280;59097;46.858;18.632;2023-04-01T07:28:03;99106.72;;;10.88;100.00
71306;BME280;59097;46.858;18.632;2023-04-01T07:33:25;99122.38;;;11.67;100.00
71306;BME280;59097;46.858;18.632;2023-04-01T07:36:47;99125.94;;;11.61;100.00
71306;BME280;59097;46.858;18.632;2023-04-01T07:45:04;99139.37;;;12.19;100.00
71306;BME280;59097;46.858;18.632;2023-04-01T07:48:09;99100.97;;;12.38;100.00
71306;BME280;59097;46.858;18.632;2023-04-01T07:51:09;99139.34;;;12.65;97.14
71306;BME280;59097;46.858;18.632;2023-04-01T07:56:39;99115.41;;;12.53;95.79
71306;BME280;59097;46.858;18.632;2023-04-01T07:59:18;99147.69;;;12.57;96.01
71306;BME280;59097;46.858;18.632;2023-04-01T08:04:50;99145.31;;;13.35;92.45
71306;BME280;59097;46.858;18.632;2023-04-01T08:07:24;99133.91;;;13.23;89.48
71306;BME280;59097;46.858;18.632;2023-04-01T08:21:32;99100.50;;;13.15;87.69
71306;BME280;59097;46.858;18.632;2023-04-01T08:24:16;99130.63;;;13.77;86.84
71306;BME280;59097;46.858;18.632;2023-04-01T08:26:51;99134.66;;;13.80;87.44
71306;BME280;59097;46.858;18.632;2023-04-01T08:29:26;99131.69;;;13.76;85.57
71306;BME280;59097;46.858;18.632;2023-04-01T08:32:36;99110.38;;;14.10;82.88
71306;BME280;59097;46.858;18.632;2023-04-01T08:35:09;99124.53;;;14.10;84.89
71306;BME280;59097;46.858;18.632;2023-04-01T08:37:43;99134.06;;;14.23;80.72
71306;BME280;59097;46.858;18.632;2023-04-01T08:43:11;99125.66;;;14.14;76.93
71306;BME280;59097;46.858;18.632;2023-04-01T09:00:25;99099.84;;;13.70;74.29
71306;BME280;59097;46.858;18.632;2023-04-01T09:06:24;99129.41;;;13.85;76.36
71306;BME280;59097;46.858;18.632;2023-04-01T09:11:58;99081.13;;;13.65;74.77
71306;BME280;59097;46.858;18.632;2023-04-01T09:23:15;99126.53;;;13.86;73.29
71306;BME280;59097;46.858;18.632;2023-04-01T09:35:10;99145.66;;;14.00;72.82
71306;BME280;59097;46.858;18.632;2023-04-01T09:40:42;99144.38;;;14.19;71.66
71306;BME280;59097;46.858;18.632;2023-04-01T09:43:39;99129.69;;;14.33;71.51
71306;BME280;59097;46.858;18.632;2023-04-01T09:49:41;99144.31;;;14.47;71.44
71306;BME280;59097;46.858;18.632;2023-04-01T10:53:47;99129.63;;;15.53;65.31
71306;BME280;59097;46.858;18.632;2023-04-01T11:02:27;99125.41;;;14.92;64.26
71306;BME280;59097;46.858;18.632;2023-04-01T11:21:59;99130.31;;;13.91;69.81
71306;BME280;59097;46.858;18.632;2023-04-01T11:33:17;99139.50;;;14.66;71.91
71306;BME280;59097;46.858;18.632;2023-04-01T11:41:31;99109.16;;;15.16;67.94
71306;BME280;59097;46.858;18.632;2023-04-01T11:44:21;99132.13;;;14.95;66.51
71306;BME280;59097;46.858;18.632;2023-04-01T11:47:41;99127.03;;;14.72;66.54
71306;BME280;59097;46.858;18.632;2023-04-01T11:50:10;99115.88;;;14.20;69.06
71306;BME280;59097;46.858;18.632;2023-04-01T12:09:48;99139.94;;;14.58;67.39
71306;BME280;59097;46.858;18.632;2023-04-01T12:12:46;99145.59;;;14.83;65.91
71306;BME280;59097;46.858;18.632;2023-04-01T12:18:20;99131.69;;;15.03;63.65
71306;BME280;59097;46.858;18.632;2023-04-01T12:26:02;99136.50;;;15.23;61.69
71306;BME280;59097;46.858;18.632;2023-04-01T12:29:03;99143.50;;;14.85;61.98
71306;BME280;59097;46.858;18.632;2023-04-01T12:37:34;99141.13;;;15.10;62.36
71306;BME280;59097;46.858;18.632;2023-04-01T13:08:11;99124.34;;;15.58;60.03
71306;BME280;59097;46.858;18.632;2023-04-01T13:19:37;99127.16;;;15.47;59.60
71306;BME280;59097;46.858;18.632;2023-04-01T13:22:16;99128.38;;;15.39;59.26
71306;BME280;59097;46.858;18.632;2023-04-01T13:24:50;99115.19;;;15.28;60.13
71306;BME280;59097;46.858;18.632;2023-04-01T13:27:37;99122.63;;;15.47;61.38
71306;BME280;59097;46.858;18.632;2023-04-01T13:39:30;99118.22;;;15.63;59.60
71306;BME280;59097;46.858;18.632;2023-04-01T13:45:10;99118.69;;;15.55;58.27
71306;BME280;59097;46.858;18.632;2023-04-01T13:48:11;99123.63;;;15.68;57.22
71306;BME280;59097;46.858;18.632;2023-04-01T13:51:47;99120.31;;;15.56;55.58
71306;BME280;59097;46.858;18.632;2023-04-01T14:08:06;99108.50;;;14.82;58.50
71306;BME280;59097;46.858;18.632;2023-04-01T14:13:37;99097.81;;;14.82;58.99
71306;BME280;59097;46.858;18.632;2023-04-01T14:19:02;99098.97;;;14.91;60.70
71306;BME280;59097;46.858;18.632;2023-04-01T14:24:41;99079.47;;;15.12;58.17
71306;BME280;59097;46.858;18.632;2023-04-01T14:32:57;99095.94;;;15.31;57.50
71306;BME280;59097;46.858;18.632;2023-04-01T14:35:38;99069.66;;;15.18;56.74
71306;BME280;59097;46.858;18.632;2023-04-01T14:47:29;99093.56;;;15.07;58.52
71306;BME280;59097;46.858;18.632;2023-04-01T14:50:13;99089.41;;;15.17;59.08
71306;BME280;59097;46.858;18.632;2023-04-01T14:52:52;99075.38;;;15.04;59.28
71306;BME280;59097;46.858;18.632;2023-04-01T14:55:31;99073.88;;;15.13;59.57
71306;BME280;59097;46.858;18.632;2023-04-01T15:01:00;99098.56;;;15.26;56.58
71306;BME280;59097;46.858;18.632;2023-04-01T15:03:49;99085.09;;;15.16;56.88
71306;BME280;59097;46.858;18.632;2023-04-01T15:09:21;99096.44;;;15.01;58.67
71306;BME280;59097;46.858;18.632;2023-04-01T15:15:02;99110.72;;;14.68;58.65
71306;BME280;59097;46.858;18.632;2023-04-01T15:23:04;99083.53;;;14.16;58.58
71306;BME280;59097;46.858;18.632;2023-04-01T15:28:49;99105.50;;;14.23;61.28
71306;BME280;59097;46.858;18.632;2023-04-01T15:34:36;99101.00;;;14.40;59.06
71306;BME280;59097;46.858;18.632;2023-04-01T15:37:23;99100.81;;;14.47;57.91
71306;BME280;59097;46.858;18.632;2023-04-01T15:40:17;99100.53;;;14.65;57.83
71306;BME280;59097;46.858;18.632;2023-04-01T15:48:24;99108.25;;;14.83;55.58
71306;BME280;59097;46.858;18.632;2023-04-01T15:51:28;99113.97;;;14.92;56.32
71306;BME280;59097;46.858;18.632;2023-04-01T15:55:26;99118.28;;;14.98;56.91
71306;BME280;59097;46.858;18.632;2023-04-01T15:58:03;99120.09;;;14.92;59.13
71306;BME280;59097;46.858;18.632;2023-04-01T16:00:33;99123.41;;;14.99;57.69
71306;BME280;59097;46.858;18.632;2023-04-01T16:11:19;99130.28;;;14.74;56.61
71306;BME280;59097;46.858;18.632;2023-04-01T16:21:51;99131.66;;;14.38;58.91
71306;BME280;59097;46.858;18.632;2023-04-01T16:24:28;99136.78;;;14.28;59.26
71306;BME280;59097;46.858;18.632;2023-04-01T16:30:22;99134.38;;;14.10;60.44
71306;BME280;59097;46.858;18.632;2023-04-01T16:41:05;99147.63;;;13.60;64.55
71306;BME280;59097;46.858;18.632;2023-04-01T16:46:53;99118.31;;;13.03;66.37
71306;BME280;59097;46.858;18.632;2023-04-01T16:49:30;99137.44;;;13.00;66.38
71306;BME280;59097;46.858;18.632;2023-04-01T16:52:13;99155.00;;;13.01;67.62
71306;BME280;59097;46.858;18.632;2023-04-01T16:55:04;99154.44;;;12.88;68.80
71306;BME280;59097;46.858;18.632;2023-04-01T16:57:51;99169.31;;;12.72;70.34
71306;BME280;59097;46.858;18.632;2023-04-01T17:00:29;99137.06;;;12.34;71.21
71306;BME280;59097;46.858;18.632;2023-04-01T17:09:07;99172.16;;;12.24;75.53
71306;BME280;59097;46.858;18.632;2023-04-01T17:22:27;99200.03;;;11.51;79.53
71306;BME280;59097;46.858;18.632;2023-04-01T17:25:24;99194.66;;;11.39;81.83
71306;BME280;59097;46.858;18.632;2023-04-01T17:33:24;99216.59;;;10.98;84.52
71306;BME280;59097;46.858;18.632;2023-04-01T17:44:17;99232.75;;;10.72;84.92
71306;BME280;59097;46.858;18.632;2023-04-01T17:52:43;99244.22;;;10.66;86.39
71306;BME280;59097;46.858;18.632;2023-04-01T17:58:20;99245.00;;;10.48;85.42
71306;BME280;59097;46.858;18.632;2023-04-01T18:04:34;99264.28;;;10.37;86.53
71306;BME280;59097;46.858;18.632;2023-04-01T18:09:59;99267.78;;;10.31;86.23
71306;BME280;59097;46.858;18.632;2023-04-01T18:12:40;99273.56;;;10.22;86.26
71306;BME280;59097;46.858;18.632;2023-04-01T18:21:41;99273.56;;;10.22;85.80
71306;BME280;59097;46.858;18.632;2023-04-01T18:24:35;99282.13;;;10.17;85.53
71306;BME280;59097;46.858;18.632;2023-04-01T18:27:21;99280.50;;;10.09;85.92
71306;BME280;59097;46.858;18.632;2023-04-01T18:32:48;99290.16;;;9.97;85.79
71306;BME280;59097;46.858;18.632;2023-04-01T18:38:39;99286.47;;;10.05;85.67
71306;BME280;59097;46.858;18.632;2023-04-01T18:41:22;99279.16;;;10.00;85.49
71306;BME280;59097;46.858;18.632;2023-04-01T18:52:31;99294.56;;;10.10;85.37
71306;BME280;59097;46.858;18.632;2023-04-01T18:58:12;99294.53;;;9.85;86.38
71306;BME280;59097;46.858;18.632;2023-04-01T19:01:00;99306.47;;;10.01;85.38
71306;BME280;59097;46.858;18.632;2023-04-01T19:06:45;99301.59;;;9.91;85.46
71306;BME280;59097;46.858;18.632;2023-04-01T19:09:32;99298.19;;;9.84;86.13
71306;BME280;59097;46.858;18.632;2023-04-01T19:18:00;99310.59;;;9.84;85.19
71306;BME280;59097;46.858;18.632;2023-04-01T19:20:43;99314.72;;;9.80;85.37
71306;BME280;59097;46.858;18.632;2023-04-01T19:27:06;99309.22;;;9.75;85.60
71306;BME280;59097;46.858;18.632;2023-04-01T19:32:16;99319.28;;;9.53;86.86
71306;BME280;59097;46.858;18.632;2023-04-01T19:37:40;99317.06;;;9.50;88.19
71306;BME280;59097;46.858;18.632;2023-04-01T19:46:09;99333.00;;;9.37;89.51
71306;BME280;59097;46.858;18.632;2023-04-01T19:51:56;99331.34;;;9.36;89.36
71306;BME280;59097;46.858;18.632;2023-04-01T19:57:52;99347.06;;;9.05;90.14
71306;BME280;59097;46.858;18.632;2023-04-01T20:00:25;99309.47;;;8.76;90.69
71306;BME280;59097;46.858;18.632;2023-04-01T20:03:19;99349.72;;;8.98;91.22
71306;BME280;59097;46.858;18.632;2023-04-01T20:14:29;99349.31;;;8.55;93.06
71306;BME280;59097;46.858;18.632;2023-04-01T20:19:42;99361.28;;;8.51;95.01
71306;BME280;59097;46.858;18.632;2023-04-01T20:25:26;99363.13;;;8.38;94.52
71306;BME280;59097;46.858;18.632;2023-04-01T20:27:58;99313.66;;;8.12;95.58
71306;BME280;59097;46.858;18.632;2023-04-01T20:36:41;99374.25;;;8.27;96.43
71306;BME280;59097;46.858;18.632;2023-04-01T20:39:26;99373.63;;;8.24;96.45
71306;BME280;59097;46.858;18.632;2023-04-01T20:52:42;99386.56;;;8.06;96.69
71306;BME280;59097;46.858;18.632;2023-04-01T20:55:28;99386.53;;;8.00;96.73
71306;BME280;59097;46.858;18.632;2023-04-01T21:00:54;99389.75;;;7.95;97.27
71306;BME280;59097;46.858;18.632;2023-04-01T21:03:34;99391.00;;;7.99;97.58
71306;BME280;59097;46.858;18.632;2023-04-01T21:08:48;99399.91;;;7.92;98.21
71306;BME280;59097;46.858;18.632;2023-04-01T21:11:27;99397.66;;;7.89;97.72
71306;BME280;59097;46.858;18.632;2023-04-01T21:17:08;99359.50;;;7.50;98.96
71306;BME280;59097;46.858;18.632;2023-04-01T21:23:26;99394.72;;;7.71;98.57
71306;BME280;59097;46.858;18.632;2023-04-01T21:25:56;99399.16;;;7.64;99.69
71306;BME280;59097;46.858;18.632;2023-04-01T21:28:41;99400.16;;;7.62;99.31
71306;BME280;59097;46.858;18.632;2023-04-01T21:31:22;99400.94;;;7.56;99.19
71306;BME280;59097;46.858;18.632;2023-04-01T21:37:10;99406.37;;;7.48;99.71
71306;BME280;59097;46.858;18.632;2023-04-01T21:42:57;99410.78;;;7.41;99.83
71306;BME280;59097;46.858;18.632;2023-04-01T21:45:56;99414.00;;;7.37;100.00
71306;BME280;59097;46.858;18.632;2023-04-01T22:11:44;99428.59;;;7.67;99.12
71306;BME280;59097;46.858;18.632;2023-04-01T22:14:37;99440.59;;;7.70;98.32
71306;BME280;59097;46.858;18.632;2023-04-01T22:19:59;99436.44;;;7.88;98.45
71306;BME280;59097;46.858;18.632;2023-04-01T22:22:58;99435.81;;;7.86;98.20
71306;BME280;59097;46.858;18.632;2023-04-01T22:28:14;99427.97;;;7.99;97.10
71306;BME280;59097;46.858;18.632;2023-04-01T22:30:51;99444.66;;;8.13;96.89
71306;BME280;59097;46.858;18.632;2023-04-01T22:39:14;99448.09;;;8.54;95.49
71306;BME280;59097;46.858;18.632;2023-04-01T22:51:13;99459.31;;;8.63;93.86
71306;BME280;59097;46.858;18.632;2023-04-01T22:56:37;99475.19;;;8.69;94.55
71306;BME280;59097;46.858;18.632;2023-04-01T22:59:19;99476.00;;;8.76;93.33
71306;BME280;59097;46.858;18.632;2023-04-01T23:02:00;99487.22;;;8.78;93.59
71306;BME280;59097;46.858;18.632;2023-04-01T23:04:38;99482.13;;;8.83;92.22
71306;BME280;59097;46.858;18.632;2023-04-01T23:07:50;99469.91;;;8.82;91.54
71306;BME280;59097;46.858;18.632;2023-04-01T23:13:14;99492.31;;;8.93;91.51
71306;BME280;59097;46.858;18.632;2023-04-01T23:15:44;99490.09;;;9.03;91.01
71306;BME280;59097;46.858;18.632;2023-04-01T23:18:24;99494.16;;;9.06;90.50
71306;BME280;59097;46.858;18.632;2023-04-01T23:29:01;99479.72;;;8.89;90.09
71306;BME280;59097;46.858;18.632;2023-04-01T23:36:50;99492.84;;;8.69;91.43
71306;BME280;59097;46.858;18.632;2023-04-01T23:41:54;99489.59;;;8.60;92.71
71306;BME280;59097;46.858;18.632;2023-04-01T23:44:25;99494.66;;;8.55;92.97
71306;BME280;59097;46.858;18.632;2023-04-01T23:46:54;99498.91;;;8.56;92.58
71306;BME280;59097;46.858;18.632;2023-04-01T23:49:34;99503.59;;;8.54;93.21
71306;BME280;59097;46.858;18.632;2023-04-01T23:52:16;99514.75;;;8.50;92.88